createdAt,value
2023-03-26T00:03:57.231Z,39.6
2023-03-26T00:10:03.196Z,39.7
2023-03-26T00:16:08.422Z,39.7
2023-03-26T00:22:14.542Z,39.7
2023-03-26T00:28:19.755Z,39.7
2023-03-26T00:34:25.100Z,39.7
2023-03-26T00:40:30.317Z,39.7
2023-03-26T00:46:35.846Z,39.7
2023-03-26T00:52:40.848Z,39.7
2023-03-26T00:58:46.014Z,39.7
2023-03-26T01:04:51.178Z,39.7
2023-03-26T01:10:56.521Z,39.7
2023-03-26T01:17:02.473Z,39.7
2023-03-26T01:23:08.032Z,39.7
2023-03-26T01:29:14.026Z,39.8
2023-03-26T01:35:19.431Z,39.7
2023-03-26T01:41:24.815Z,39.7
2023-03-26T01:47:30.173Z,39.7
2023-03-26T01:53:35.537Z,39.8
2023-03-26T01:59:40.687Z,39.8
2023-03-26T02:05:46.469Z,39.8
2023-03-26T02:11:51.629Z,39.8
2023-03-26T02:17:57.624Z,39.8
2023-03-26T02:24:03.434Z,39.8
2023-03-26T02:30:09.125Z,39.8
2023-03-26T02:36:14.616Z,39.8
2023-03-26T02:42:19.917Z,39.8
2023-03-26T02:48:25.280Z,39.9
2023-03-26T02:54:30.807Z,39.9
2023-03-26T03:00:36.212Z,39.9
2023-03-26T03:06:41.370Z,39.9
2023-03-26T03:12:46.545Z,39.9
2023-03-26T03:18:51.699Z,39.9
2023-03-26T03:24:56.805Z,39.9
2023-03-26T03:31:02.823Z,40
2023-03-26T03:37:07.509Z,40
2023-03-26T03:43:12.922Z,40
2023-03-26T03:49:18.333Z,40
2023-03-26T03:55:23.457Z,40.1
2023-03-26T04:01:28.814Z,40.1
2023-03-26T04:07:34.048Z,40.1
2023-03-26T04:13:39.193Z,40.1
2023-03-26T04:19:44.578Z,40.1
2023-03-26T04:25:49.921Z,40.2
2023-03-26T04:31:55.289Z,40.2
2023-03-26T04:38:00.611Z,40.2
2023-03-26T04:44:06.039Z,40.2
2023-03-26T04:50:11.209Z,40.2
2023-03-26T04:56:16.357Z,40.2
2023-03-26T05:02:21.877Z,40.3
2023-03-26T05:08:27.505Z,40.3
2023-03-26T05:14:32.831Z,40.3
2023-03-26T05:20:38.638Z,40.3
2023-03-26T05:26:44.416Z,40.3
2023-03-26T05:32:50.607Z,40.3
2023-03-26T05:38:56.127Z,40.3
2023-03-26T05:45:01.673Z,40.2
2023-03-26T05:51:07.113Z,40.1
2023-03-26T05:57:12.747Z,39.7
2023-03-26T06:03:17.973Z,39.4
2023-03-26T06:09:23.610Z,39.1
2023-03-26T06:15:29.446Z,39.1
2023-03-26T06:21:34.793Z,39
2023-03-26T06:27:40.148Z,39.1
2023-03-26T06:33:45.509Z,39.1
2023-03-26T06:39:50.899Z,39.2
2023-03-26T06:45:56.850Z,39.2
2023-03-26T06:52:02.455Z,39.2
2023-03-26T06:58:07.774Z,39.3
2023-03-26T07:04:13.183Z,39.2
2023-03-26T07:10:18.544Z,39.3
2023-03-26T07:16:23.750Z,39.4
2023-03-26T07:22:29.904Z,39.5
2023-03-26T07:28:35.271Z,39.6
2023-03-26T07:34:41.192Z,39.6
2023-03-26T07:40:46.238Z,39.6
2023-03-26T07:46:51.778Z,39.8
2023-03-26T07:52:57.137Z,39.8
2023-03-26T07:59:02.103Z,39.9
2023-03-26T08:05:07.679Z,39.9
2023-03-26T08:11:13.193Z,39.9
2023-03-26T08:17:18.422Z,39.9
2023-03-26T08:23:24.174Z,40
2023-03-26T08:29:29.564Z,40
2023-03-26T08:35:35.480Z,40
2023-03-26T08:41:40.935Z,39.9
2023-03-26T08:47:48.529Z,39.9
2023-03-26T08:53:53.886Z,40
2023-03-26T09:00:01.377Z,40.1
2023-03-26T09:06:08.045Z,40.1
2023-03-26T09:12:13.264Z,40.2
2023-03-26T09:18:18.432Z,40.2
2023-03-26T09:24:23.830Z,40.3
2023-03-26T09:30:29.107Z,40.3
2023-03-26T09:36:34.960Z,40.4
2023-03-26T09:42:40.124Z,40.3
2023-03-26T09:48:45.893Z,40.3
2023-03-26T09:54:51.259Z,40.4
2023-03-26T10:00:56.961Z,40.4
2023-03-26T10:07:02.754Z,40.4
2023-03-26T10:13:17.807Z,40.4
2023-03-26T10:19:23.577Z,40.5
2023-03-26T10:25:28.991Z,40.6
2023-03-26T10:31:34.748Z,40.6
2023-03-26T10:37:40.032Z,40.6
2023-03-26T10:43:52.056Z,40.7
2023-03-26T10:50:03.721Z,40.8
2023-03-26T10:56:09.078Z,40.6
2023-03-26T11:02:14.417Z,40.6
2023-03-26T11:08:19.866Z,40.7
2023-03-26T11:14:38.308Z,40.7
2023-03-26T11:20:43.472Z,40.7
2023-03-26T11:26:48.996Z,40.8
2023-03-26T11:32:54.672Z,40.7
2023-03-26T11:39:01.029Z,40.8
2023-03-26T11:45:07.145Z,41
2023-03-26T11:51:12.256Z,40.8
2023-03-26T11:57:17.761Z,40.9
2023-03-26T12:03:23.370Z,41
2023-03-26T12:09:28.872Z,40.7
2023-03-26T12:15:34.460Z,40.5
2023-03-26T12:21:39.950Z,40.5
2023-03-26T12:27:45.582Z,40.5
2023-03-26T12:33:51.150Z,40.5
2023-03-26T12:40:16.126Z,40.6
2023-03-26T12:48:04.403Z,40.6
2023-03-26T12:54:09.334Z,40.7
2023-03-26T13:00:14.690Z,40.7
2023-03-26T13:06:20.086Z,40.8
2023-03-26T13:12:25.033Z,40.8
2023-03-26T13:18:30.384Z,40.8
2023-03-26T13:24:35.971Z,40.8
2023-03-26T13:30:41.149Z,40.9
2023-03-26T13:36:46.897Z,40.9
2023-03-26T13:42:53.120Z,40.9
2023-03-26T13:48:58.461Z,41
2023-03-26T13:55:03.821Z,41
2023-03-26T14:01:09.549Z,40.8
2023-03-26T14:07:15.190Z,40.9
2023-03-26T14:13:20.354Z,41
2023-03-26T14:19:30.824Z,40.9
2023-03-26T14:25:36.205Z,40.9
2023-03-26T14:31:42.009Z,40.9
2023-03-26T14:37:47.331Z,40.9
2023-03-26T14:43:53.523Z,40.9
2023-03-26T14:49:59.297Z,40.9
2023-03-26T14:56:05.015Z,40.9
2023-03-26T15:02:11.117Z,40.9
2023-03-26T15:08:16.858Z,40.9
2023-03-26T15:14:22.437Z,40.9
2023-03-26T15:20:27.800Z,41
2023-03-26T15:26:33.352Z,41
2023-03-26T15:32:38.963Z,41
2023-03-26T15:38:44.631Z,41
2023-03-26T15:44:56.405Z,41.2
2023-03-26T15:51:02.024Z,41.2
2023-03-26T15:57:07.728Z,41.1
2023-03-26T16:03:13.741Z,41.1
2023-03-26T16:09:19.470Z,41.3
2023-03-26T16:15:24.692Z,41.2
2023-03-26T16:21:35.134Z,41.2
2023-03-26T16:27:40.957Z,41
2023-03-26T16:33:46.276Z,41
2023-03-26T16:39:52.262Z,41.1
2023-03-26T16:45:57.615Z,41.1
2023-03-26T16:52:03.258Z,41.1
2023-03-26T16:58:08.609Z,41.2
2023-03-26T17:04:14.140Z,41.1
2023-03-26T17:10:19.487Z,41.2
2023-03-26T17:16:25.090Z,41.2
2023-03-26T17:22:30.957Z,41.1
2023-03-26T17:28:36.674Z,41.2
2023-03-26T17:34:41.635Z,40.9
2023-03-26T17:40:46.598Z,41
2023-03-26T17:46:52.165Z,41
2023-03-26T17:52:58.328Z,41
2023-03-26T17:59:15.326Z,40.9
2023-03-26T18:05:21.308Z,40.9
2023-03-26T18:11:26.266Z,40.9
2023-03-26T18:17:31.902Z,40.9
2023-03-26T18:23:37.849Z,40.9
2023-03-26T18:29:43.683Z,40.8
2023-03-26T18:35:49.415Z,40.8
2023-03-26T18:41:54.804Z,40.8
2023-03-26T18:48:00.561Z,40.8
2023-03-26T18:54:05.765Z,40.8
2023-03-26T19:00:11.678Z,40.8
2023-03-26T19:06:17.471Z,40.8
2023-03-26T19:12:23.242Z,40.8
2023-03-26T19:18:28.491Z,40.7
2023-03-26T19:24:33.574Z,40.7
2023-03-26T19:30:38.941Z,40.7
2023-03-26T19:36:44.748Z,40.7
2023-03-26T19:42:50.743Z,40.6
2023-03-26T19:48:56.156Z,40.7
2023-03-26T19:55:02.660Z,40.7
2023-03-26T20:01:08.288Z,40.6
2023-03-26T20:07:13.256Z,40.6
2023-03-26T20:13:18.535Z,40.6
2023-03-26T20:19:24.591Z,40.7
2023-03-26T20:25:33.612Z,40.6
2023-03-26T20:31:39.393Z,40.6
2023-03-26T20:37:44.554Z,40.6
2023-03-26T20:43:49.983Z,40.6
2023-03-26T20:49:55.654Z,40.5
2023-03-26T20:56:01.240Z,40.5
2023-03-26T21:02:07.056Z,40.5
2023-03-26T21:08:12.465Z,40.5
2023-03-26T21:14:18.004Z,40.5
2023-03-26T21:20:23.535Z,40.5
2023-03-26T21:32:51.150Z,40.4
2023-03-26T21:38:56.661Z,40.5
2023-03-26T21:45:01.987Z,40.4
2023-03-26T21:51:07.628Z,40.4
2023-03-26T21:57:12.680Z,40.4
2023-03-26T22:03:18.128Z,40.4
2023-03-26T22:15:45.635Z,40.4
2023-03-26T22:21:51.745Z,40.5
2023-03-26T22:27:57.742Z,40.4
2023-03-26T22:34:03.793Z,40.4
2023-03-26T22:40:10.184Z,40.4
2023-03-26T22:46:16.001Z,40.4
2023-03-26T22:52:22.349Z,40.4
2023-03-26T22:58:28.549Z,40.4
2023-03-26T23:04:35.658Z,40.4
2023-03-26T23:10:41.185Z,40.4
2023-03-26T23:16:47.131Z,40.4
2023-03-26T23:22:52.631Z,40.4
2023-03-26T23:28:57.560Z,40.4
2023-03-26T23:35:02.988Z,40.4
2023-03-26T23:41:08.621Z,40.4
2023-03-26T23:47:13.773Z,40.3
2023-03-26T23:53:19.342Z,40.3
2023-03-26T23:59:24.507Z,40.3
